CJB5 weather

Moosomin Airport
Moosomin, Saskatchewan, Canada

Public forecast

Using degrees Celsius for public forecast. Weather courtesy of forecast.io.

METAR (pilot weather report)

Closest report is Brandon Municipal Airport, 67.1 nm (124.2 km) ESE. Retrieved 2019/05/21 13:00 UTC (60 minutes ago):

CYBR 211300Z 08012KT 15SM BKN230 11/M00 A3010 RMK CI5 SLP204

TAF (pilot weather forecast)

Closest forecast is Brandon Municipal Airport, 67.1 nm (124.2 km) ESE. Retrieved 2019/05/21 12:42 UTC (1 hour ago):

TAF CYBR 211138Z 2112/2124 05006KT P6SM FEW220 BECMG 2113/2115 08010KT FM211700 09015KT P6SM SCT170 RMK NXT FCST BY 211800Z